sensor_id;sensor_type;location;lat;lon;timestamp;P1;durP1;ratioP1;P2;durP2;ratioP2
21354;SDS011;10835;50.148;19.760;2022-10-31T00:00:59;13.10;;;6.55;;
21354;SDS011;10835;50.148;19.760;2022-10-31T00:03:27;16.05;;;7.25;;
21354;SDS011;10835;50.148;19.760;2022-10-31T00:05:55;13.98;;;7.25;;
21354;SDS011;10835;50.148;19.760;2022-10-31T00:08:23;11.88;;;7.10;;
21354;SDS011;10835;50.148;19.760;2022-10-31T00:10:51;19.55;;;6.88;;
21354;SDS011;10835;50.148;19.760;2022-10-31T00:13:19;10.95;;;6.40;;
21354;SDS011;10835;50.148;19.760;2022-10-31T00:15:53;10.88;;;5.53;;
21354;SDS011;10835;50.148;19.760;2022-10-31T00:18:21;15.20;;;5.32;;
21354;SDS011;10835;50.148;19.760;2022-10-31T00:20:57;12.43;;;5.95;;
21354;SDS011;10835;50.148;19.760;2022-10-31T00:23:26;8.57;;;5.45;;
21354;SDS011;10835;50.148;19.760;2022-10-31T00:25:59;8.23;;;5.03;;
21354;SDS011;10835;50.148;19.760;2022-10-31T00:28:27;11.02;;;5.38;;
21354;SDS011;10835;50.148;19.760;2022-10-31T00:30:59;8.10;;;5.50;;
21354;SDS011;10835;50.148;19.760;2022-10-31T00:33:29;9.27;;;4.90;;
21354;SDS011;10835;50.148;19.760;2022-10-31T00:35:58;10.20;;;5.50;;
21354;SDS011;10835;50.148;19.760;2022-10-31T00:38:26;11.13;;;5.30;;
21354;SDS011;10835;50.148;19.760;2022-10-31T00:40:54;16.45;;;5.88;;
21354;SDS011;10835;50.148;19.760;2022-10-31T00:43:22;7.72;;;4.85;;
21354;SDS011;10835;50.148;19.760;2022-10-31T00:45:50;8.55;;;5.00;;
21354;SDS011;10835;50.148;19.760;2022-10-31T00:48:19;9.60;;;4.55;;
21354;SDS011;10835;50.148;19.760;2022-10-31T00:50:47;7.90;;;3.88;;
21354;SDS011;10835;50.148;19.760;2022-10-31T00:53:15;7.70;;;4.30;;
21354;SDS011;10835;50.148;19.760;2022-10-31T00:55:43;9.25;;;4.35;;
21354;SDS011;10835;50.148;19.760;2022-10-31T00:58:12;10.82;;;5.15;;
21354;SDS011;10835;50.148;19.760;2022-10-31T01:05:09;8.95;;;3.58;;
21354;SDS011;10835;50.148;19.760;2022-10-31T01:07:38;7.43;;;3.22;;
21354;SDS011;10835;50.148;19.760;2022-10-31T01:10:08;4.43;;;3.13;;
21354;SDS011;10835;50.148;19.760;2022-10-31T01:12:40;4.47;;;3.03;;
21354;SDS011;10835;50.148;19.760;2022-10-31T01:15:09;9.40;;;3.85;;
21354;SDS011;10835;50.148;19.760;2022-10-31T01:17:38;4.63;;;2.92;;
21354;SDS011;10835;50.148;19.760;2022-10-31T01:20:11;11.20;;;3.45;;
21354;SDS011;10835;50.148;19.760;2022-10-31T01:22:41;7.60;;;3.65;;
21354;SDS011;10835;50.148;19.760;2022-10-31T01:25:10;7.10;;;3.47;;
21354;SDS011;10835;50.148;19.760;2022-10-31T01:27:38;7.90;;;3.78;;
21354;SDS011;10835;50.148;19.760;2022-10-31T01:30:06;7.68;;;3.30;;
21354;SDS011;10835;50.148;19.760;2022-10-31T01:32:35;3.88;;;2.80;;
21354;SDS011;10835;50.148;19.760;2022-10-31T01:35:03;11.40;;;3.92;;
21354;SDS011;10835;50.148;19.760;2022-10-31T01:37:33;7.13;;;3.63;;
21354;SDS011;10835;50.148;19.760;2022-10-31T01:40:01;5.10;;;2.95;;
21354;SDS011;10835;50.148;19.760;2022-10-31T01:42:29;8.70;;;4.07;;
21354;SDS011;10835;50.148;19.760;2022-10-31T01:44:58;6.53;;;2.97;;
21354;SDS011;10835;50.148;19.760;2022-10-31T01:47:30;6.35;;;3.92;;
21354;SDS011;10835;50.148;19.760;2022-10-31T01:50:06;7.13;;;3.50;;
21354;SDS011;10835;50.148;19.760;2022-10-31T01:52:42;6.55;;;3.08;;
21354;SDS011;10835;50.148;19.760;2022-10-31T01:55:16;6.13;;;2.78;;
21354;SDS011;10835;50.148;19.760;2022-10-31T01:57:54;8.25;;;3.55;;
21354;SDS011;10835;50.148;19.760;2022-10-31T02:00:25;5.53;;;2.97;;
21354;SDS011;10835;50.148;19.760;2022-10-31T02:02:53;8.63;;;3.67;;
21354;SDS011;10835;50.148;19.760;2022-10-31T02:05:26;5.25;;;3.13;;
21354;SDS011;10835;50.148;19.760;2022-10-31T02:07:59;4.88;;;2.78;;
21354;SDS011;10835;50.148;19.760;2022-10-31T02:10:33;5.63;;;2.50;;
21354;SDS011;10835;50.148;19.760;2022-10-31T02:13:06;5.50;;;2.83;;
21354;SDS011;10835;50.148;19.760;2022-10-31T02:15:42;6.65;;;3.42;;
21354;SDS011;10835;50.148;19.760;2022-10-31T02:18:12;4.60;;;2.65;;
21354;SDS011;10835;50.148;19.760;2022-10-31T02:20:45;5.88;;;2.60;;
21354;SDS011;10835;50.148;19.760;2022-10-31T02:23:31;4.32;;;2.88;;
21354;SDS011;10835;50.148;19.760;2022-10-31T02:26:31;9.65;;;3.13;;
21354;SDS011;10835;50.148;19.760;2022-10-31T02:29:36;4.55;;;2.85;;
21354;SDS011;10835;50.148;19.760;2022-10-31T02:32:29;12.48;;;4.10;;
21354;SDS011;10835;50.148;19.760;2022-10-31T02:35:17;9.23;;;3.83;;
21354;SDS011;10835;50.148;19.760;2022-10-31T02:37:56;6.00;;;3.08;;
21354;SDS011;10835;50.148;19.760;2022-10-31T02:40:43;8.80;;;3.30;;
21354;SDS011;10835;50.148;19.760;2022-10-31T02:43:58;4.18;;;2.75;;
21354;SDS011;10835;50.148;19.760;2022-10-31T02:46:34;4.93;;;2.30;;
21354;SDS011;10835;50.148;19.760;2022-10-31T02:49:11;5.95;;;2.67;;
21354;SDS011;10835;50.148;19.760;2022-10-31T02:51:46;4.43;;;3.08;;
21354;SDS011;10835;50.148;19.760;2022-10-31T02:54:17;5.80;;;3.35;;
21354;SDS011;10835;50.148;19.760;2022-10-31T02:56:52;8.38;;;3.80;;
21354;SDS011;10835;50.148;19.760;2022-10-31T02:59:23;6.43;;;3.20;;
21354;SDS011;10835;50.148;19.760;2022-10-31T03:02:03;7.72;;;3.47;;
21354;SDS011;10835;50.148;19.760;2022-10-31T03:07:46;11.45;;;7.50;;
21354;SDS011;10835;50.148;19.760;2022-10-31T03:10:23;17.98;;;9.60;;
21354;SDS011;10835;50.148;19.760;2022-10-31T03:12:59;14.30;;;7.18;;
21354;SDS011;10835;50.148;19.760;2022-10-31T03:15:33;15.50;;;7.82;;
21354;SDS011;10835;50.148;19.760;2022-10-31T03:18:06;7.93;;;4.95;;
21354;SDS011;10835;50.148;19.760;2022-10-31T03:20:40;8.15;;;4.47;;
21354;SDS011;10835;50.148;19.760;2022-10-31T03:23:13;5.82;;;4.13;;
21354;SDS011;10835;50.148;19.760;2022-10-31T03:25:48;8.18;;;3.40;;
21354;SDS011;10835;50.148;19.760;2022-10-31T03:28:26;10.75;;;6.38;;
21354;SDS011;10835;50.148;19.760;2022-10-31T03:30:56;12.30;;;5.13;;
21354;SDS011;10835;50.148;19.760;2022-10-31T03:33:32;6.45;;;4.13;;
21354;SDS011;10835;50.148;19.760;2022-10-31T03:36:06;9.18;;;3.97;;
21354;SDS011;10835;50.148;19.760;2022-10-31T03:38:39;7.97;;;3.72;;
21354;SDS011;10835;50.148;19.760;2022-10-31T03:41:11;8.98;;;5.20;;
21354;SDS011;10835;50.148;19.760;2022-10-31T03:43:46;13.02;;;6.15;;
21354;SDS011;10835;50.148;19.760;2022-10-31T03:46:20;13.57;;;6.60;;
21354;SDS011;10835;50.148;19.760;2022-10-31T03:48:49;17.67;;;6.72;;
21354;SDS011;10835;50.148;19.760;2022-10-31T03:51:21;15.60;;;6.47;;
21354;SDS011;10835;50.148;19.760;2022-10-31T03:53:52;12.90;;;5.88;;
21354;SDS011;10835;50.148;19.760;2022-10-31T03:56:26;11.85;;;5.70;;
21354;SDS011;10835;50.148;19.760;2022-10-31T03:59:00;13.50;;;6.13;;
21354;SDS011;10835;50.148;19.760;2022-10-31T04:01:32;12.50;;;5.28;;
21354;SDS011;10835;50.148;19.760;2022-10-31T04:04:04;22.40;;;8.50;;
21354;SDS011;10835;50.148;19.760;2022-10-31T04:06:36;19.70;;;9.15;;
21354;SDS011;10835;50.148;19.760;2022-10-31T04:09:06;19.30;;;10.07;;
21354;SDS011;10835;50.148;19.760;2022-10-31T04:11:37;19.23;;;8.45;;
21354;SDS011;10835;50.148;19.760;2022-10-31T04:14:46;12.52;;;7.53;;
21354;SDS011;10835;50.148;19.760;2022-10-31T04:17:21;15.60;;;6.88;;
21354;SDS011;10835;50.148;19.760;2022-10-31T04:19:51;12.75;;;6.88;;
21354;SDS011;10835;50.148;19.760;2022-10-31T04:22:20;14.50;;;6.35;;
21354;SDS011;10835;50.148;19.760;2022-10-31T04:24:48;12.27;;;5.82;;
21354;SDS011;10835;50.148;19.760;2022-10-31T04:27:17;12.40;;;5.05;;
21354;SDS011;10835;50.148;19.760;2022-10-31T04:29:45;7.40;;;4.75;;
21354;SDS011;10835;50.148;19.760;2022-10-31T04:32:16;8.75;;;4.97;;
21354;SDS011;10835;50.148;19.760;2022-10-31T04:34:44;7.15;;;3.90;;
21354;SDS011;10835;50.148;19.760;2022-10-31T04:37:12;6.63;;;3.88;;
21354;SDS011;10835;50.148;19.760;2022-10-31T04:39:42;6.93;;;4.10;;
21354;SDS011;10835;50.148;19.760;2022-10-31T04:42:28;8.10;;;3.75;;
21354;SDS011;10835;50.148;19.760;2022-10-31T04:44:59;8.15;;;4.60;;
21354;SDS011;10835;50.148;19.760;2022-10-31T04:47:30;8.77;;;4.47;;
21354;SDS011;10835;50.148;19.760;2022-10-31T04:50:00;9.15;;;4.25;;
21354;SDS011;10835;50.148;19.760;2022-10-31T04:52:29;4.88;;;3.50;;
21354;SDS011;10835;50.148;19.760;2022-10-31T04:54:58;8.30;;;3.20;;
21354;SDS011;10835;50.148;19.760;2022-10-31T04:57:46;4.75;;;3.25;;
21354;SDS011;10835;50.148;19.760;2022-10-31T05:00:17;8.98;;;3.60;;
21354;SDS011;10835;50.148;19.760;2022-10-31T05:02:49;9.90;;;3.95;;
21354;SDS011;10835;50.148;19.760;2022-10-31T05:05:19;5.82;;;3.58;;
21354;SDS011;10835;50.148;19.760;2022-10-31T05:07:48;8.43;;;3.78;;
21354;SDS011;10835;50.148;19.760;2022-10-31T05:10:21;8.02;;;4.63;;
21354;SDS011;10835;50.148;19.760;2022-10-31T05:12:51;10.82;;;5.15;;
21354;SDS011;10835;50.148;19.760;2022-10-31T05:15:41;7.05;;;4.38;;
21354;SDS011;10835;50.148;19.760;2022-10-31T05:18:27;9.48;;;5.10;;
21354;SDS011;10835;50.148;19.760;2022-10-31T05:21:14;6.97;;;4.18;;
21354;SDS011;10835;50.148;19.760;2022-10-31T05:23:51;9.70;;;4.20;;
21354;SDS011;10835;50.148;19.760;2022-10-31T05:26:23;10.15;;;3.47;;
21354;SDS011;10835;50.148;19.760;2022-10-31T05:28:53;8.10;;;4.20;;
21354;SDS011;10835;50.148;19.760;2022-10-31T05:31:22;6.32;;;3.63;;
21354;SDS011;10835;50.148;19.760;2022-10-31T05:33:52;7.15;;;4.07;;
21354;SDS011;10835;50.148;19.760;2022-10-31T05:36:43;7.45;;;3.90;;
21354;SDS011;10835;50.148;19.760;2022-10-31T05:39:14;5.82;;;3.00;;
21354;SDS011;10835;50.148;19.760;2022-10-31T05:41:47;6.18;;;2.95;;
21354;SDS011;10835;50.148;19.760;2022-10-31T05:44:25;7.80;;;4.05;;
21354;SDS011;10835;50.148;19.760;2022-10-31T05:47:07;13.77;;;4.60;;
21354;SDS011;10835;50.148;19.760;2022-10-31T05:49:37;8.48;;;3.47;;
21354;SDS011;10835;50.148;19.760;2022-10-31T05:52:38;6.65;;;3.22;;
21354;SDS011;10835;50.148;19.760;2022-10-31T05:55:16;8.25;;;3.38;;
21354;SDS011;10835;50.148;19.760;2022-10-31T05:58:02;5.60;;;3.22;;
21354;SDS011;10835;50.148;19.760;2022-10-31T06:00:31;6.20;;;3.25;;
21354;SDS011;10835;50.148;19.760;2022-10-31T06:03:06;7.78;;;4.10;;
21354;SDS011;10835;50.148;19.760;2022-10-31T06:05:45;5.32;;;3.50;;
21354;SDS011;10835;50.148;19.760;2022-10-31T06:08:20;8.57;;;4.20;;
21354;SDS011;10835;50.148;19.760;2022-10-31T06:10:48;9.15;;;3.50;;
21354;SDS011;10835;50.148;19.760;2022-10-31T06:13:24;10.75;;;3.72;;
21354;SDS011;10835;50.148;19.760;2022-10-31T06:16:07;12.10;;;4.70;;
21354;SDS011;10835;50.148;19.760;2022-10-31T06:18:37;9.68;;;4.18;;
21354;SDS011;10835;50.148;19.760;2022-10-31T06:21:06;6.57;;;4.10;;
21354;SDS011;10835;50.148;19.760;2022-10-31T06:23:35;8.00;;;4.18;;
21354;SDS011;10835;50.148;19.760;2022-10-31T06:26:28;10.77;;;4.10;;
21354;SDS011;10835;50.148;19.760;2022-10-31T06:28:57;15.15;;;4.18;;
21354;SDS011;10835;50.148;19.760;2022-10-31T06:31:47;9.80;;;3.95;;
21354;SDS011;10835;50.148;19.760;2022-10-31T06:34:14;5.22;;;3.50;;
21354;SDS011;10835;50.148;19.760;2022-10-31T06:36:45;11.15;;;4.20;;
21354;SDS011;10835;50.148;19.760;2022-10-31T06:39:15;7.93;;;4.07;;
21354;SDS011;10835;50.148;19.760;2022-10-31T06:41:44;7.60;;;3.85;;
21354;SDS011;10835;50.148;19.760;2022-10-31T06:44:19;9.63;;;4.00;;
21354;SDS011;10835;50.148;19.760;2022-10-31T06:46:53;10.10;;;4.45;;
21354;SDS011;10835;50.148;19.760;2022-10-31T06:49:40;6.95;;;3.65;;
21354;SDS011;10835;50.148;19.760;2022-10-31T06:52:14;7.15;;;3.85;;
21354;SDS011;10835;50.148;19.760;2022-10-31T06:54:42;10.10;;;4.85;;
21354;SDS011;10835;50.148;19.760;2022-10-31T06:57:12;7.55;;;4.85;;
21354;SDS011;10835;50.148;19.760;2022-10-31T06:59:41;9.90;;;4.75;;
21354;SDS011;10835;50.148;19.760;2022-10-31T07:02:24;10.40;;;4.78;;
21354;SDS011;10835;50.148;19.760;2022-10-31T07:04:52;11.93;;;4.45;;
21354;SDS011;10835;50.148;19.760;2022-10-31T07:07:21;10.38;;;4.88;;
21354;SDS011;10835;50.148;19.760;2022-10-31T07:09:50;9.68;;;4.90;;
21354;SDS011;10835;50.148;19.760;2022-10-31T07:12:24;10.25;;;4.72;;
21354;SDS011;10835;50.148;19.760;2022-10-31T07:14:58;9.50;;;5.38;;
21354;SDS011;10835;50.148;19.760;2022-10-31T07:17:27;14.73;;;6.00;;
21354;SDS011;10835;50.148;19.760;2022-10-31T07:19:58;13.20;;;6.38;;
21354;SDS011;10835;50.148;19.760;2022-10-31T07:22:31;17.50;;;6.82;;
21354;SDS011;10835;50.148;19.760;2022-10-31T07:25:01;13.15;;;6.82;;
21354;SDS011;10835;50.148;19.760;2022-10-31T07:27:48;15.07;;;7.43;;
21354;SDS011;10835;50.148;19.760;2022-10-31T07:30:19;19.25;;;9.05;;
21354;SDS011;10835;50.148;19.760;2022-10-31T07:32:50;20.70;;;9.82;;
21354;SDS011;10835;50.148;19.760;2022-10-31T07:35:20;20.63;;;9.27;;
21354;SDS011;10835;50.148;19.760;2022-10-31T07:37:56;18.08;;;8.77;;
21354;SDS011;10835;50.148;19.760;2022-10-31T07:40:25;22.10;;;9.00;;
21354;SDS011;10835;50.148;19.760;2022-10-31T07:42:53;15.77;;;8.20;;
21354;SDS011;10835;50.148;19.760;2022-10-31T07:45:58;20.80;;;7.60;;
21354;SDS011;10835;50.148;19.760;2022-10-31T07:49:01;16.77;;;8.52;;
21354;SDS011;10835;50.148;19.760;2022-10-31T07:51:38;13.68;;;8.02;;
21354;SDS011;10835;50.148;19.760;2022-10-31T07:54:30;16.05;;;7.90;;
21354;SDS011;10835;50.148;19.760;2022-10-31T07:56:58;17.33;;;9.38;;
21354;SDS011;10835;50.148;19.760;2022-10-31T07:59:27;16.80;;;8.60;;
21354;SDS011;10835;50.148;19.760;2022-10-31T08:02:08;18.38;;;9.43;;
21354;SDS011;10835;50.148;19.760;2022-10-31T08:04:48;18.77;;;9.52;;
21354;SDS011;10835;50.148;19.760;2022-10-31T08:07:52;16.73;;;9.07;;
21354;SDS011;10835;50.148;19.760;2022-10-31T08:10:21;14.68;;;7.90;;
21354;SDS011;10835;50.148;19.760;2022-10-31T08:12:54;18.33;;;9.93;;
21354;SDS011;10835;50.148;19.760;2022-10-31T08:15:24;12.80;;;7.15;;
21354;SDS011;10835;50.148;19.760;2022-10-31T08:17:53;15.52;;;8.52;;
21354;SDS011;10835;50.148;19.760;2022-10-31T08:20:21;17.33;;;8.65;;
21354;SDS011;10835;50.148;19.760;2022-10-31T08:22:54;21.23;;;7.97;;
21354;SDS011;10835;50.148;19.760;2022-10-31T08:25:25;17.40;;;8.55;;
21354;SDS011;10835;50.148;19.760;2022-10-31T08:28:00;15.77;;;7.43;;
21354;SDS011;10835;50.148;19.760;2022-10-31T08:30:30;21.90;;;8.43;;
21354;SDS011;10835;50.148;19.760;2022-10-31T08:33:20;18.48;;;8.23;;
21354;SDS011;10835;50.148;19.760;2022-10-31T08:36:07;13.65;;;6.93;;
21354;SDS011;10835;50.148;19.760;2022-10-31T08:38:52;11.77;;;6.97;;
21354;SDS011;10835;50.148;19.760;2022-10-31T08:41:27;15.32;;;7.22;;
21354;SDS011;10835;50.148;19.760;2022-10-31T08:43:57;16.42;;;7.45;;
21354;SDS011;10835;50.148;19.760;2022-10-31T08:46:25;12.77;;;6.70;;
21354;SDS011;10835;50.148;19.760;2022-10-31T08:48:55;14.00;;;6.72;;
21354;SDS011;10835;50.148;19.760;2022-10-31T08:51:23;17.17;;;8.20;;
21354;SDS011;10835;50.148;19.760;2022-10-31T08:53:53;12.15;;;7.13;;
21354;SDS011;10835;50.148;19.760;2022-10-31T08:56:40;17.63;;;7.28;;
21354;SDS011;10835;50.148;19.760;2022-10-31T08:59:22;14.80;;;7.10;;
21354;SDS011;10835;50.148;19.760;2022-10-31T09:02:13;15.55;;;5.88;;
21354;SDS011;10835;50.148;19.760;2022-10-31T09:04:43;10.32;;;5.82;;
21354;SDS011;10835;50.148;19.760;2022-10-31T09:07:11;17.55;;;7.57;;
21354;SDS011;10835;50.148;19.760;2022-10-31T09:09:47;12.95;;;6.00;;
21354;SDS011;10835;50.148;19.760;2022-10-31T09:12:17;13.38;;;5.38;;
21354;SDS011;10835;50.148;19.760;2022-10-31T09:15:03;10.00;;;5.15;;
21354;SDS011;10835;50.148;19.760;2022-10-31T09:17:38;12.38;;;6.07;;
21354;SDS011;10835;50.148;19.760;2022-10-31T09:20:21;12.52;;;5.60;;
21354;SDS011;10835;50.148;19.760;2022-10-31T09:22:54;11.00;;;5.60;;
21354;SDS011;10835;50.148;19.760;2022-10-31T09:25:23;14.18;;;5.55;;
21354;SDS011;10835;50.148;19.760;2022-10-31T09:28:12;13.38;;;4.70;;
21354;SDS011;10835;50.148;19.760;2022-10-31T09:30:45;15.40;;;5.35;;
21354;SDS011;10835;50.148;19.760;2022-10-31T09:33:20;7.63;;;4.78;;
21354;SDS011;10835;50.148;19.760;2022-10-31T09:36:05;14.20;;;5.50;;
21354;SDS011;10835;50.148;19.760;2022-10-31T09:38:39;17.70;;;5.53;;
21354;SDS011;10835;50.148;19.760;2022-10-31T09:41:12;10.52;;;5.60;;
21354;SDS011;10835;50.148;19.760;2022-10-31T09:43:49;8.48;;;5.63;;
21354;SDS011;10835;50.148;19.760;2022-10-31T09:46:24;11.27;;;5.63;;
21354;SDS011;10835;50.148;19.760;2022-10-31T09:49:05;14.70;;;5.03;;
21354;SDS011;10835;50.148;19.760;2022-10-31T09:51:53;13.20;;;4.85;;
21354;SDS011;10835;50.148;19.760;2022-10-31T09:54:30;11.73;;;5.72;;
21354;SDS011;10835;50.148;19.760;2022-10-31T09:57:02;14.27;;;5.88;;
21354;SDS011;10835;50.148;19.760;2022-10-31T09:59:33;14.40;;;4.80;;
21354;SDS011;10835;50.148;19.760;2022-10-31T10:02:04;12.05;;;5.72;;
21354;SDS011;10835;50.148;19.760;2022-10-31T10:04:38;11.25;;;5.95;;
21354;SDS011;10835;50.148;19.760;2022-10-31T10:07:21;8.02;;;5.20;;
21354;SDS011;10835;50.148;19.760;2022-10-31T10:10:25;15.10;;;6.03;;
21354;SDS011;10835;50.148;19.760;2022-10-31T10:13:22;11.55;;;4.85;;
21354;SDS011;10835;50.148;19.760;2022-10-31T10:16:03;13.07;;;4.88;;
21354;SDS011;10835;50.148;19.760;2022-10-31T10:18:41;7.80;;;4.60;;
21354;SDS011;10835;50.148;19.760;2022-10-31T10:21:23;13.85;;;5.70;;
21354;SDS011;10835;50.148;19.760;2022-10-31T10:24:03;9.40;;;4.70;;
21354;SDS011;10835;50.148;19.760;2022-10-31T10:26:42;9.73;;;4.93;;
21354;SDS011;10835;50.148;19.760;2022-10-31T10:29:22;14.20;;;5.47;;
21354;SDS011;10835;50.148;19.760;2022-10-31T10:31:57;10.27;;;5.40;;
21354;SDS011;10835;50.148;19.760;2022-10-31T10:34:32;11.73;;;5.40;;
21354;SDS011;10835;50.148;19.760;2022-10-31T10:37:04;9.07;;;4.88;;
21354;SDS011;10835;50.148;19.760;2022-10-31T10:39:43;8.05;;;4.90;;
21354;SDS011;10835;50.148;19.760;2022-10-31T10:42:15;16.25;;;5.57;;
21354;SDS011;10835;50.148;19.760;2022-10-31T10:45:06;9.32;;;4.35;;
21354;SDS011;10835;50.148;19.760;2022-10-31T10:48:01;8.85;;;4.78;;
21354;SDS011;10835;50.148;19.760;2022-10-31T10:50:39;11.60;;;5.43;;
21354;SDS011;10835;50.148;19.760;2022-10-31T10:53:17;11.55;;;4.97;;
21354;SDS011;10835;50.148;19.760;2022-10-31T10:56:10;13.10;;;4.80;;
21354;SDS011;10835;50.148;19.760;2022-10-31T10:58:42;13.65;;;5.03;;
21354;SDS011;10835;50.148;19.760;2022-10-31T11:01:12;9.95;;;5.40;;
21354;SDS011;10835;50.148;19.760;2022-10-31T11:03:49;9.18;;;5.03;;
21354;SDS011;10835;50.148;19.760;2022-10-31T11:06:17;11.45;;;4.60;;
21354;SDS011;10835;50.148;19.760;2022-10-31T11:08:48;14.00;;;4.22;;
21354;SDS011;10835;50.148;19.760;2022-10-31T11:11:24;7.18;;;4.38;;
21354;SDS011;10835;50.148;19.760;2022-10-31T11:13:55;8.05;;;5.13;;
21354;SDS011;10835;50.148;19.760;2022-10-31T11:16:31;11.50;;;4.80;;
21354;SDS011;10835;50.148;19.760;2022-10-31T11:19:07;10.27;;;4.32;;
21354;SDS011;10835;50.148;19.760;2022-10-31T11:21:42;9.38;;;4.88;;
21354;SDS011;10835;50.148;19.760;2022-10-31T11:24:20;11.52;;;5.40;;
21354;SDS011;10835;50.148;19.760;2022-10-31T11:26:51;11.10;;;5.28;;
21354;SDS011;10835;50.148;19.760;2022-10-31T11:29:29;9.68;;;4.15;;
21354;SDS011;10835;50.148;19.760;2022-10-31T11:31:57;10.55;;;4.75;;
21354;SDS011;10835;50.148;19.760;2022-10-31T11:34:29;12.77;;;4.50;;
21354;SDS011;10835;50.148;19.760;2022-10-31T11:37:01;7.85;;;4.70;;
21354;SDS011;10835;50.148;19.760;2022-10-31T11:39:39;7.80;;;4.68;;
21354;SDS011;10835;50.148;19.760;2022-10-31T11:42:12;8.32;;;4.13;;
21354;SDS011;10835;50.148;19.760;2022-10-31T11:44:41;8.02;;;4.68;;
21354;SDS011;10835;50.148;19.760;2022-10-31T11:47:12;12.35;;;5.30;;
21354;SDS011;10835;50.148;19.760;2022-10-31T11:49:42;9.25;;;4.72;;
21354;SDS011;10835;50.148;19.760;2022-10-31T11:52:16;15.23;;;4.88;;
21354;SDS011;10835;50.148;19.760;2022-10-31T11:54:47;11.52;;;5.18;;
21354;SDS011;10835;50.148;19.760;2022-10-31T11:57:22;12.85;;;5.22;;
21354;SDS011;10835;50.148;19.760;2022-10-31T11:59:52;9.13;;;5.03;;
21354;SDS011;10835;50.148;19.760;2022-10-31T12:02:22;18.00;;;5.93;;
21354;SDS011;10835;50.148;19.760;2022-10-31T12:04:53;10.38;;;5.20;;
21354;SDS011;10835;50.148;19.760;2022-10-31T12:07:29;9.90;;;4.97;;
21354;SDS011;10835;50.148;19.760;2022-10-31T12:09:58;12.75;;;5.13;;
21354;SDS011;10835;50.148;19.760;2022-10-31T12:12:36;14.00;;;5.50;;
21354;SDS011;10835;50.148;19.760;2022-10-31T12:15:27;11.15;;;4.70;;
21354;SDS011;10835;50.148;19.760;2022-10-31T12:20:55;9.27;;;4.50;;
21354;SDS011;10835;50.148;19.760;2022-10-31T12:23:33;10.60;;;5.05;;
21354;SDS011;10835;50.148;19.760;2022-10-31T12:26:13;11.77;;;5.00;;
21354;SDS011;10835;50.148;19.760;2022-10-31T12:28:56;17.00;;;5.43;;
21354;SDS011;10835;50.148;19.760;2022-10-31T12:31:48;9.05;;;5.32;;
21354;SDS011;10835;50.148;19.760;2022-10-31T12:34:30;17.92;;;5.47;;
21354;SDS011;10835;50.148;19.760;2022-10-31T12:37:15;10.15;;;4.22;;
21354;SDS011;10835;50.148;19.760;2022-10-31T12:39:56;15.73;;;5.50;;
21354;SDS011;10835;50.148;19.760;2022-10-31T12:42:39;10.55;;;4.97;;
21354;SDS011;10835;50.148;19.760;2022-10-31T12:45:26;10.45;;;4.82;;
21354;SDS011;10835;50.148;19.760;2022-10-31T12:48:14;11.40;;;5.28;;
21354;SDS011;10835;50.148;19.760;2022-10-31T12:50:58;9.73;;;4.65;;
21354;SDS011;10835;50.148;19.760;2022-10-31T12:53:37;12.82;;;4.68;;
21354;SDS011;10835;50.148;19.760;2022-10-31T12:56:20;13.40;;;6.00;;
21354;SDS011;10835;50.148;19.760;2022-10-31T12:58:59;9.52;;;5.38;;
21354;SDS011;10835;50.148;19.760;2022-10-31T13:01:32;10.55;;;4.50;;
21354;SDS011;10835;50.148;19.760;2022-10-31T13:04:05;11.93;;;5.22;;
21354;SDS011;10835;50.148;19.760;2022-10-31T13:06:40;10.63;;;5.10;;
21354;SDS011;10835;50.148;19.760;2022-10-31T13:09:15;11.82;;;5.05;;
21354;SDS011;10835;50.148;19.760;2022-10-31T13:11:46;6.68;;;4.55;;
21354;SDS011;10835;50.148;19.760;2022-10-31T13:14:21;9.13;;;4.68;;
21354;SDS011;10835;50.148;19.760;2022-10-31T13:16:55;13.50;;;4.72;;
21354;SDS011;10835;50.148;19.760;2022-10-31T13:19:25;6.10;;;4.18;;
21354;SDS011;10835;50.148;19.760;2022-10-31T13:21:57;10.07;;;5.05;;
21354;SDS011;10835;50.148;19.760;2022-10-31T13:24:31;14.27;;;5.43;;
21354;SDS011;10835;50.148;19.760;2022-10-31T13:27:02;10.30;;;5.25;;
21354;SDS011;10835;50.148;19.760;2022-10-31T13:29:42;13.35;;;5.78;;
21354;SDS011;10835;50.148;19.760;2022-10-31T13:32:16;10.00;;;5.65;;
21354;SDS011;10835;50.148;19.760;2022-10-31T13:34:45;11.77;;;5.57;;
21354;SDS011;10835;50.148;19.760;2022-10-31T13:37:21;17.92;;;5.85;;
21354;SDS011;10835;50.148;19.760;2022-10-31T13:40:00;13.57;;;5.03;;
21354;SDS011;10835;50.148;19.760;2022-10-31T13:42:45;11.57;;;5.63;;
21354;SDS011;10835;50.148;19.760;2022-10-31T13:45:22;19.25;;;5.68;;
21354;SDS011;10835;50.148;19.760;2022-10-31T13:47:57;13.18;;;5.38;;
21354;SDS011;10835;50.148;19.760;2022-10-31T13:50:27;8.43;;;5.00;;
21354;SDS011;10835;50.148;19.760;2022-10-31T13:55:47;7.57;;;4.57;;
21354;SDS011;10835;50.148;19.760;2022-10-31T13:58:21;9.20;;;4.43;;
21354;SDS011;10835;50.148;19.760;2022-10-31T14:00:57;11.80;;;5.63;;
21354;SDS011;10835;50.148;19.760;2022-10-31T14:03:44;9.98;;;5.32;;
21354;SDS011;10835;50.148;19.760;2022-10-31T14:06:35;13.98;;;5.70;;
21354;SDS011;10835;50.148;19.760;2022-10-31T14:09:15;9.57;;;4.85;;
21354;SDS011;10835;50.148;19.760;2022-10-31T14:11:49;12.77;;;5.30;;
21354;SDS011;10835;50.148;19.760;2022-10-31T14:14:18;12.48;;;5.78;;
21354;SDS011;10835;50.148;19.760;2022-10-31T14:16:52;11.10;;;5.93;;
21354;SDS011;10835;50.148;19.760;2022-10-31T14:19:23;16.27;;;5.70;;
21354;SDS011;10835;50.148;19.760;2022-10-31T14:21:53;15.77;;;5.32;;
21354;SDS011;10835;50.148;19.760;2022-10-31T14:24:31;12.68;;;5.72;;
21354;SDS011;10835;50.148;19.760;2022-10-31T14:27:02;11.48;;;5.25;;
21354;SDS011;10835;50.148;19.760;2022-10-31T14:29:33;11.45;;;6.15;;
21354;SDS011;10835;50.148;19.760;2022-10-31T14:32:04;15.38;;;5.75;;
21354;SDS011;10835;50.148;19.760;2022-10-31T14:34:41;13.48;;;6.35;;
21354;SDS011;10835;50.148;19.760;2022-10-31T14:37:30;18.52;;;5.70;;
21354;SDS011;10835;50.148;19.760;2022-10-31T14:40:18;12.48;;;6.20;;
21354;SDS011;10835;50.148;19.760;2022-10-31T14:43:14;20.55;;;6.40;;
21354;SDS011;10835;50.148;19.760;2022-10-31T14:45:53;16.35;;;5.68;;
21354;SDS011;10835;50.148;19.760;2022-10-31T14:48:38;12.32;;;5.70;;
21354;SDS011;10835;50.148;19.760;2022-10-31T14:51:25;12.65;;;6.35;;
21354;SDS011;10835;50.148;19.760;2022-10-31T14:53:58;20.90;;;9.73;;
21354;SDS011;10835;50.148;19.760;2022-10-31T14:56:28;16.98;;;9.00;;
21354;SDS011;10835;50.148;19.760;2022-10-31T14:58:57;18.42;;;9.60;;
21354;SDS011;10835;50.148;19.760;2022-10-31T15:01:31;17.45;;;6.43;;
21354;SDS011;10835;50.148;19.760;2022-10-31T15:04:04;12.50;;;5.55;;
21354;SDS011;10835;50.148;19.760;2022-10-31T15:06:51;14.77;;;5.32;;
21354;SDS011;10835;50.148;19.760;2022-10-31T15:09:23;11.85;;;5.65;;
21354;SDS011;10835;50.148;19.760;2022-10-31T15:11:52;10.23;;;5.82;;
21354;SDS011;10835;50.148;19.760;2022-10-31T15:14:22;9.65;;;5.50;;
21354;SDS011;10835;50.148;19.760;2022-10-31T15:16:51;10.82;;;5.97;;
21354;SDS011;10835;50.148;19.760;2022-10-31T15:19:21;11.95;;;5.65;;
21354;SDS011;10835;50.148;19.760;2022-10-31T15:21:52;19.10;;;6.88;;
21354;SDS011;10835;50.148;19.760;2022-10-31T15:24:22;17.27;;;5.78;;
21354;SDS011;10835;50.148;19.760;2022-10-31T15:26:54;15.60;;;5.78;;